Main page
METAR-TAF:

METAR-TAF

Airports :

Don Mueang International Airport

Bangkok, Thailand

latitude: 13-54-45N, longitude: 100-36-24E, elevation: 4 m

Current weather observation

The report was made 31 minutes ago, at 17:00 UTC
Wind 6 kt from the South, varying between Southeast and South/Southwest
Temperature 27°C
Humidity 79%
Pressure 1012 hPa
Visibility: 9000 m
Scattered clouds at a height of 2000 ft

METAR: VTBD 281700Z 17006KT 140V200 9000 SCT020 27/23 Q1012 NOSIG

Time: 00:31 (17:31 UTC)

Forecast

The report was made 6 hours and 31 minutes ago, at 11:00 UTC
Forecast valid from 28 at 12 UTC to 29 at 18 UTC
Wind 8 kt from the South/Southwest
Visibility: 9000 m
Few clouds at a height of 2000 ft
Becoming
from 28 at 19 UTC to 28 at 21 UTC
Wind 5 kt from the East/Southeast
Visibility: 5000 m
mist
Becoming
from 29 at 01 UTC to 29 at 03 UTC
Wind 8 kt from the South/Southwest
Visibility: 9000 m

TAF: VTBD 281100Z 2812/2918 21008KT 9000 FEW020 BECMG 2819/2821 11005KT 5000 BR BECMG 2901/2903 21008KT 9000 NSW

Weather observations and forecasts of more than 4000 airports (METAR and TAF reports).

The available stations are represented by yellow and red dots on the map.

Hover mouse over dot to see the name of the station.

Then click to see weather observations and forecasts.

To change the map : click on the green buttons with a black cross to zoom in, on the green button with a dash to zoom out, or on the green arrows for adjacent maps.


METAR-TAF: